Maren — 5BRW4 — position and weather

sailwx.info

Track history (hours):
 
Tides and Currents Weather Stations Pressure Air Temp Water Temp Dewpoint Dewpoint Depression Visibility Wind Speed Wind Dir Waves Ship Positions

Maren

Last reported at 2017-Oct-19 23:45 UTC. Time now 2017-Oct-22 23:01 UTC.
Position N 35°51' W 005°02'.

Length 148 m; draft 6.4 m.

Type: Cargo ship. MMSI: 209096000.

Date/timePositionNaut miles runAvg speedWind from/ knotsBaromVisibWave heightAir tempDewpointWater temp
2017-Oct-19 23:45N 35°51' W 005°02'310.2
2017-Oct-19 23:29N 35°53' W 005°05'610.9
2017-Oct-19 22:59N 35°57' W 005°10'612.9
2017-Oct-19 22:30N 35°59' W 005°17'612.9
2017-Oct-19 22:00N 35°57' W 005°25'8 0.6
2017-Oct-19 10:16N 35°54' W 005°33'1 2.4
2017-Oct-19 10:00N 35°54' W 005°34'1 0.3
2017-Oct-19 05:30N 35°53' W 005°35'0 0.0
2017-Oct-19 04:30N 35°53' W 005°35'0 0.1
2017-Oct-19 02:48N 35°53' W 005°35'0 0.1
2017-Oct-19 02:25N 35°53' W 005°35'0 0.1
2017-Oct-19 01:52N 35°53' W 005°35'0 0.0
2017-Oct-19 01:28N 35°53' W 005°35'0 0.0
2017-Oct-19 01:01N 35°53' W 005°35'0 0.0
2017-Oct-19 00:25N 35°53' W 005°35'0 0.0
2017-Oct-18 23:49N 35°53' W 005°35'0 0.0
2017-Oct-18 23:22N 35°53' W 005°35'0 0.0
2017-Oct-18 21:34N 35°53' W 005°35'0 0.1
2017-Oct-18 20:37N 35°53' W 005°35'0 0.1
2017-Oct-18 20:13N 35°53' W 005°35'0 0.0
2017-Oct-18 19:49N 35°53' W 005°35'0 0.1
2017-Oct-18 19:31N 35°53' W 005°35'0 0.0
2017-Oct-18 16:13N 35°53' W 005°35'0 0.1
2017-Oct-18 15:49N 35°53' W 005°35'0 0.1
2017-Oct-18 15:28N 35°53' W 005°35'0 0.0
2017-Oct-18 14:55N 35°53' W 005°35'0 0.0
2017-Oct-18 13:46N 35°53' W 005°35'0 0.0
2017-Oct-18 13:19N 35°53' W 005°35'0 0.0
2017-Oct-18 12:13N 35°53' W 005°35'0 0.0
2017-Oct-18 04:19N 35°53' W 005°35'0 0.1
2017-Oct-18 03:49N 35°53' W 005°35'1 0.1
2017-Oct-17 11:15N 35°53' W 005°34'4 9.1
2017-Oct-17 10:51N 35°57' W 005°33'2 6.6
2017-Oct-17 10:30N 35°58' W 005°31'5 9.6
2017-Oct-17 10:00N 35°60' W 005°25'5 9.8
2017-Oct-17 09:30N 36°00' W 005°19'5 9.9
2017-Oct-17 09:00N 35°58' W 005°14'  
2017-Oct-12 17:21N 35°53' W 000°53'3 9.6
2017-Oct-12 17:00N 35°53' W 000°48'12 8.2
2017-Oct-12 15:30N 35°44' W 000°37'2 0.8
2017-Oct-12 13:10N 35°43' W 000°38'0 0.0
2017-Oct-12 12:59N 35°43' W 000°38'0 0.0
2017-Oct-12 12:29N 35°43' W 000°38'0 0.0
2017-Oct-12 09:59N 35°43' W 000°38'0 0.0
2017-Oct-11 22:53N 35°43' W 000°38'0 0.0
2017-Oct-11 22:23N 35°43' W 000°38'0 0.0
2017-Oct-11 21:29N 35°43' W 000°38'0 0.0
2017-Oct-11 19:11N 35°43' W 000°38'0 0.0
2017-Oct-11 18:59N 35°43' W 000°38'0 0.0
2017-Oct-11 18:29N 35°43' W 000°38'0 0.0
2017-Oct-11 17:53N 35°43' W 000°38'0 0.0
2017-Oct-11 17:29N 35°43' W 000°38'  
Track history (hours):
 
Tides and Currents Weather Stations Pressure Air Temp Water Temp Dewpoint Dewpoint Depression Visibility Wind Speed Wind Dir Waves Ship Positions

Maren

Last reported at 2017-Oct-19 23:45 UTC. Time now 2017-Oct-22 23:01 UTC.
Position N 35°51' W 005°02'.

Length 148 m; draft 6.4 m.

Type: Cargo ship. MMSI: 209096000.

Date/timePositionNaut miles runAvg speedWind from/ knotsBaromVisibWave heightAir tempDewpointWater temp
2017-Oct-19 23:45N 35°51' W 005°02'310.2
2017-Oct-19 23:29N 35°53' W 005°05'610.9
2017-Oct-19 22:59N 35°57' W 005°10'612.9
2017-Oct-19 22:30N 35°59' W 005°17'612.9
2017-Oct-19 22:00N 35°57' W 005°25'8 0.6
2017-Oct-19 10:16N 35°54' W 005°33'1 2.4
2017-Oct-19 10:00N 35°54' W 005°34'1 0.3
2017-Oct-19 05:30N 35°53' W 005°35'0 0.0
2017-Oct-19 04:30N 35°53' W 005°35'0 0.1
2017-Oct-19 02:48N 35°53' W 005°35'0 0.1
2017-Oct-19 02:25N 35°53' W 005°35'0 0.1
2017-Oct-19 01:52N 35°53' W 005°35'0 0.0
2017-Oct-19 01:28N 35°53' W 005°35'0 0.0
2017-Oct-19 01:01N 35°53' W 005°35'0 0.0
2017-Oct-19 00:25N 35°53' W 005°35'0 0.0
2017-Oct-18 23:49N 35°53' W 005°35'0 0.0
2017-Oct-18 23:22N 35°53' W 005°35'0 0.0
2017-Oct-18 21:34N 35°53' W 005°35'0 0.1
2017-Oct-18 20:37N 35°53' W 005°35'0 0.1
2017-Oct-18 20:13N 35°53' W 005°35'0 0.0
2017-Oct-18 19:49N 35°53' W 005°35'0 0.1
2017-Oct-18 19:31N 35°53' W 005°35'0 0.0
2017-Oct-18 16:13N 35°53' W 005°35'0 0.1
2017-Oct-18 15:49N 35°53' W 005°35'0 0.1
2017-Oct-18 15:28N 35°53' W 005°35'0 0.0
2017-Oct-18 14:55N 35°53' W 005°35'0 0.0
2017-Oct-18 13:46N 35°53' W 005°35'0 0.0
2017-Oct-18 13:19N 35°53' W 005°35'0 0.0
2017-Oct-18 12:13N 35°53' W 005°35'0 0.0
2017-Oct-18 04:19N 35°53' W 005°35'0 0.1
2017-Oct-18 03:49N 35°53' W 005°35'1 0.1
2017-Oct-17 11:15N 35°53' W 005°34'4 9.1
2017-Oct-17 10:51N 35°57' W 005°33'2 6.6
2017-Oct-17 10:30N 35°58' W 005°31'5 9.6
2017-Oct-17 10:00N 35°60' W 005°25'5 9.8
2017-Oct-17 09:30N 36°00' W 005°19'5 9.9
2017-Oct-17 09:00N 35°58' W 005°14'  
2017-Oct-12 17:21N 35°53' W 000°53'3 9.6
2017-Oct-12 17:00N 35°53' W 000°48'12 8.2
2017-Oct-12 15:30N 35°44' W 000°37'2 0.8
2017-Oct-12 13:10N 35°43' W 000°38'0 0.0
2017-Oct-12 12:59N 35°43' W 000°38'0 0.0
2017-Oct-12 12:29N 35°43' W 000°38'0 0.0
2017-Oct-12 09:59N 35°43' W 000°38'0 0.0
2017-Oct-11 22:53N 35°43' W 000°38'0 0.0
2017-Oct-11 22:23N 35°43' W 000°38'0 0.0
2017-Oct-11 21:29N 35°43' W 000°38'0 0.0
2017-Oct-11 19:11N 35°43' W 000°38'0 0.0
2017-Oct-11 18:59N 35°43' W 000°38'0 0.0
2017-Oct-11 18:29N 35°43' W 000°38'0 0.0
2017-Oct-11 17:53N 35°43' W 000°38'0 0.0
2017-Oct-11 17:29N 35°43' W 000°38'  

Dump ship's entire track history